createdAt,value
2019-03-26T00:01:59.273Z,7.40
2019-03-26T00:04:27.703Z,7.40
2019-03-26T00:06:56.165Z,7.30
2019-03-26T00:09:26.903Z,7.30
2019-03-26T00:11:55.427Z,7.30
2019-03-26T00:14:23.833Z,7.30
2019-03-26T00:16:52.276Z,7.30
2019-03-26T00:19:20.756Z,7.20
2019-03-26T00:21:49.168Z,7.20
2019-03-26T00:24:17.609Z,7.20
2019-03-26T00:26:46.028Z,7.10
2019-03-26T00:29:14.527Z,7.10
2019-03-26T00:31:43.248Z,7.10
2019-03-26T00:34:19.257Z,7.10
2019-03-26T00:36:41.916Z,7.10
2019-03-26T00:39:10.368Z,7.10
2019-03-26T00:41:38.813Z,7.10
2019-03-26T00:44:07.232Z,7.10
2019-03-26T00:46:35.675Z,7.10
2019-03-26T00:49:04.149Z,7.20
2019-03-26T00:51:32.605Z,7.10
2019-03-26T00:54:01.785Z,7.10
2019-03-26T00:56:30.226Z,7.10
2019-03-26T00:58:58.771Z,7.20
2019-03-26T01:01:27.233Z,7.20
2019-03-26T01:03:55.690Z,7.20
2019-03-26T01:06:24.102Z,7.20
2019-03-26T01:08:52.591Z,7.20
2019-03-26T01:11:20.997Z,7.10
2019-03-26T01:13:49.532Z,7.10
2019-03-26T01:16:18.211Z,7.10
2019-03-26T01:18:46.634Z,7.10
2019-03-26T01:21:15.132Z,7.10
2019-03-26T01:23:43.577Z,7.00
2019-03-26T01:26:11.972Z,7.10
2019-03-26T01:28:40.401Z,7.00
2019-03-26T01:31:08.851Z,7.10
2019-03-26T01:33:37.261Z,7.10
2019-03-26T01:36:05.695Z,7.10
2019-03-26T01:38:34.124Z,7.10
2019-03-26T01:41:02.644Z,7.10
2019-03-26T01:43:31.105Z,7.10
2019-03-26T01:45:59.612Z,7.20
2019-03-26T01:48:28.085Z,7.20
2019-03-26T01:50:56.536Z,7.20
2019-03-26T01:53:24.999Z,7.10
2019-03-26T01:55:53.497Z,7.10
2019-03-26T01:58:22.168Z,7.10
2019-03-26T02:00:50.635Z,7.10
2019-03-26T02:03:19.100Z,7.00
2019-03-26T02:05:47.529Z,7.00
2019-03-26T02:08:15.944Z,7.00
2019-03-26T02:10:44.518Z,7.10
2019-03-26T02:13:13.033Z,7.00
2019-03-26T02:15:41.673Z,7.00
2019-03-26T02:18:10.109Z,7.00
2019-03-26T02:20:38.543Z,7.00
2019-03-26T02:23:07.070Z,7.00
2019-03-26T02:25:35.525Z,7.00
2019-03-26T02:28:04.003Z,7.00
2019-03-26T02:30:32.558Z,7.00
2019-03-26T02:33:01.058Z,7.00
2019-03-26T02:35:29.542Z,7.00
2019-03-26T02:38:01.273Z,7.00
2019-03-26T02:40:29.694Z,7.00
2019-03-26T02:42:58.180Z,7.00
2019-03-26T02:45:26.701Z,7.10
2019-03-26T02:47:55.103Z,7.00
2019-03-26T02:50:23.565Z,7.00
2019-03-26T02:52:52.009Z,7.00
2019-03-26T02:55:20.432Z,7.00
2019-03-26T02:57:48.926Z,7.10
2019-03-26T03:00:17.358Z,7.10
2019-03-26T03:03:05.132Z,7.00
2019-03-26T03:05:35.864Z,7.10
2019-03-26T03:08:03.729Z,7.10
2019-03-26T03:10:32.145Z,7.10
2019-03-26T03:13:00.574Z,7.10
2019-03-26T03:15:29.014Z,7.20
2019-03-26T03:17:57.530Z,7.20
2019-03-26T03:20:45.333Z,7.10
2019-03-26T03:23:13.909Z,7.10
2019-03-26T03:25:42.321Z,7.10
2019-03-26T03:28:10.769Z,7.00
2019-03-26T03:30:39.281Z,7.00
2019-03-26T03:33:07.688Z,7.10
2019-03-26T03:35:51.175Z,7.00
2019-03-26T03:38:06.272Z,7.10
2019-03-26T03:40:35.267Z,7.10
2019-03-26T03:43:03.760Z,7.00
2019-03-26T03:45:33.105Z,7.00
2019-03-26T03:48:01.691Z,7.00
2019-03-26T03:50:30.502Z,7.00
2019-03-26T03:53:01.076Z,7.00
2019-03-26T03:55:30.982Z,7.10
2019-03-26T03:58:01.301Z,7.00
2019-03-26T04:00:35.148Z,7.10
2019-03-26T04:03:04.794Z,7.10
2019-03-26T04:05:33.678Z,7.10
2019-03-26T04:08:02.463Z,7.00
2019-03-26T04:10:30.879Z,7.00
2019-03-26T04:12:59.384Z,7.00
2019-03-26T04:15:27.812Z,7.00
2019-03-26T04:17:56.319Z,7.00
2019-03-26T04:20:24.828Z,7.00
2019-03-26T04:22:53.322Z,7.00
2019-03-26T04:25:21.752Z,6.90
2019-03-26T04:27:50.215Z,6.90
2019-03-26T04:30:31.750Z,6.90
2019-03-26T04:33:00.254Z,6.90
2019-03-26T04:35:28.692Z,7.00
2019-03-26T04:37:57.174Z,7.00
2019-03-26T04:40:25.618Z,7.00
2019-03-26T04:42:54.038Z,6.90
2019-03-26T04:45:22.531Z,6.90
2019-03-26T04:47:50.924Z,6.90
2019-03-26T04:50:19.414Z,6.90
2019-03-26T04:52:47.844Z,6.90
2019-03-26T04:55:16.371Z,6.90
2019-03-26T04:57:44.772Z,6.90
2019-03-26T05:00:13.650Z,6.90
2019-03-26T05:02:42.103Z,6.90
2019-03-26T05:05:12.366Z,6.90
2019-03-26T05:07:40.789Z,6.90
2019-03-26T05:10:09.488Z,6.90
2019-03-26T05:12:37.913Z,6.80
2019-03-26T05:15:07.071Z,6.80
2019-03-26T05:17:35.517Z,6.80
2019-03-26T05:20:06.151Z,6.70
2019-03-26T05:22:34.874Z,6.70
2019-03-26T05:25:04.821Z,6.70
2019-03-26T05:27:44.872Z,6.70
2019-03-26T05:30:04.573Z,6.70
2019-03-26T05:32:33.044Z,6.70
2019-03-26T05:35:01.484Z,6.70
2019-03-26T05:37:29.957Z,6.70
2019-03-26T05:39:58.417Z,6.70
2019-03-26T05:42:26.861Z,6.80
2019-03-26T05:44:55.277Z,6.70
2019-03-26T05:47:23.729Z,6.70
2019-03-26T05:49:52.237Z,6.80
2019-03-26T05:52:20.830Z,6.80
2019-03-26T05:54:49.241Z,6.80
2019-03-26T05:57:17.714Z,6.90
2019-03-26T05:59:46.141Z,6.90
2019-03-26T06:02:17.930Z,6.90
2019-03-26T06:04:44.808Z,7.10
2019-03-26T06:07:13.231Z,7.10
2019-03-26T06:09:41.749Z,7.10
2019-03-26T06:12:10.213Z,7.00
2019-03-26T06:14:38.657Z,7.10
2019-03-26T06:17:07.266Z,7.10
2019-03-26T06:19:35.776Z,7.10
2019-03-26T06:22:04.188Z,7.20
2019-03-26T06:24:32.612Z,7.20
2019-03-26T06:27:01.047Z,7.20
2019-03-26T06:29:30.056Z,7.20
2019-03-26T06:31:58.504Z,7.20
2019-03-26T06:34:27.019Z,7.00
2019-03-26T06:36:55.433Z,7.10
2019-03-26T06:39:23.863Z,7.00
2019-03-26T06:41:52.354Z,7.10
2019-03-26T06:44:22.411Z,7.20
2019-03-26T06:46:54.063Z,7.20
2019-03-26T06:49:21.985Z,7.30
2019-03-26T06:51:50.455Z,7.30
2019-03-26T06:54:21.434Z,7.30
2019-03-26T06:56:49.893Z,7.50
2019-03-26T06:59:18.359Z,7.50
2019-03-26T07:01:48.751Z,7.50
2019-03-26T07:04:25.004Z,7.50
2019-03-26T07:06:57.797Z,7.60
2019-03-26T07:09:26.869Z,7.50
2019-03-26T07:11:55.415Z,7.50
2019-03-26T07:14:45.292Z,7.60
2019-03-26T07:17:14.637Z,7.70
2019-03-26T07:19:47.447Z,7.50
2019-03-26T07:22:16.479Z,7.60
2019-03-26T07:24:45.329Z,7.70
2019-03-26T07:27:15.361Z,7.70
2019-03-26T07:29:49.373Z,7.70
2019-03-26T07:32:19.169Z,7.80
2019-03-26T07:34:47.999Z,7.80
2019-03-26T07:37:17.939Z,7.90
2019-03-26T07:39:54.769Z,8.00
2019-03-26T07:42:24.436Z,8.00
2019-03-26T07:44:58.116Z,8.20
2019-03-26T07:47:28.159Z,8.30
2019-03-26T07:49:56.559Z,7.90
2019-03-26T07:52:26.204Z,7.70
2019-03-26T07:54:59.556Z,7.60
2019-03-26T07:57:29.627Z,7.60
2019-03-26T07:59:58.220Z,7.80
2019-03-26T08:02:27.959Z,7.70
2019-03-26T08:05:02.440Z,7.70
2019-03-26T08:07:35.307Z,7.80
2019-03-26T08:10:09.054Z,7.80
2019-03-26T08:12:41.446Z,8.00
2019-03-26T08:15:09.714Z,7.90
2019-03-26T08:17:38.273Z,8.00
2019-03-26T08:20:12.645Z,7.90
2019-03-26T08:22:42.616Z,8.00
2019-03-26T08:25:12.495Z,7.80
2019-03-26T08:27:41.063Z,7.80
2019-03-26T08:30:11.163Z,7.90
2019-03-26T08:32:43.966Z,8.00
2019-03-26T08:35:12.702Z,8.00
2019-03-26T08:37:41.478Z,8.10
2019-03-26T08:40:10.886Z,8.20
2019-03-26T08:42:44.766Z,8.20
2019-03-26T08:45:13.570Z,8.10
2019-03-26T08:47:42.700Z,8.10
2019-03-26T08:50:14.358Z,8.10
2019-03-26T08:52:47.639Z,8.10
2019-03-26T08:55:20.221Z,8.30
2019-03-26T08:57:49.176Z,8.20
2019-03-26T09:00:18.291Z,8.30
2019-03-26T09:02:48.510Z,8.50
2019-03-26T09:05:21.471Z,8.60
2019-03-26T09:07:51.220Z,8.60
2019-03-26T09:10:19.692Z,8.80
2019-03-26T09:12:49.539Z,9.00
2019-03-26T09:15:20.982Z,9.40
2019-03-26T09:17:49.382Z,9.90
2019-03-26T09:20:17.820Z,10.90
2019-03-26T09:22:48.522Z,10.90
2019-03-26T09:25:17.574Z,10.60
2019-03-26T09:27:46.352Z,10.20
2019-03-26T09:30:18.933Z,10.20
2019-03-26T09:32:51.859Z,10.40
2019-03-26T09:35:25.876Z,10.20
2019-03-26T09:37:59.778Z,10.50
2019-03-26T09:40:31.110Z,10.80
2019-03-26T09:42:59.537Z,10.50
2019-03-26T09:45:27.956Z,9.90
2019-03-26T09:47:58.757Z,9.60
2019-03-26T09:50:33.856Z,9.40
2019-03-26T09:53:04.595Z,9.40
2019-03-26T09:55:33.418Z,9.40
2019-03-26T09:58:02.178Z,9.30
2019-03-26T10:00:33.915Z,9.40
2019-03-26T10:03:11.250Z,9.60
2019-03-26T10:05:43.792Z,9.40
2019-03-26T10:08:18.020Z,9.50
2019-03-26T10:10:51.066Z,9.50
2019-03-26T10:13:23.629Z,9.40
2019-03-26T10:15:52.297Z,9.50
2019-03-26T10:18:20.709Z,9.60
2019-03-26T10:20:54.000Z,9.70
2019-03-26T10:23:24.591Z,9.70
2019-03-26T10:25:53.021Z,10.00
2019-03-26T10:28:21.455Z,10.30
2019-03-26T10:30:51.697Z,10.40
2019-03-26T10:33:20.552Z,10.40
2019-03-26T10:35:49.311Z,10.60
2019-03-26T10:38:19.238Z,10.50
2019-03-26T10:40:51.276Z,10.60
2019-03-26T10:43:20.362Z,10.80
2019-03-26T10:45:48.856Z,10.50
2019-03-26T10:48:19.844Z,10.40
2019-03-26T10:50:53.338Z,10.20
2019-03-26T10:53:29.514Z,9.90
2019-03-26T10:56:01.108Z,9.70
2019-03-26T10:58:29.684Z,9.40
2019-03-26T11:00:58.195Z,9.40
2019-03-26T11:03:30.839Z,9.40
2019-03-26T11:06:01.299Z,9.50
2019-03-26T11:08:29.986Z,9.40
2019-03-26T11:10:58.421Z,9.60
2019-03-26T11:13:31.544Z,9.70
2019-03-26T11:16:04.488Z,9.80
2019-03-26T11:18:34.306Z,9.70
2019-03-26T11:21:03.402Z,9.80
2019-03-26T11:23:32.571Z,9.80
2019-03-26T11:26:05.150Z,10.00
2019-03-26T11:28:35.616Z,10.20
2019-03-26T11:31:04.468Z,10.40
2019-03-26T11:33:34.234Z,10.00
2019-03-26T11:36:06.849Z,9.70
2019-03-26T11:38:36.576Z,9.60
2019-03-26T11:41:05.452Z,9.40
2019-03-26T11:43:35.116Z,9.40
2019-03-26T11:46:06.765Z,9.40
2019-03-26T11:48:35.218Z,9.30
2019-03-26T11:51:03.618Z,9.20
2019-03-26T11:53:33.912Z,9.20
2019-03-26T11:56:03.839Z,9.20
2019-03-26T11:58:34.007Z,9.40
2019-03-26T12:01:03.626Z,9.70
2019-03-26T12:03:34.605Z,9.90
2019-03-26T12:06:03.064Z,10.00
2019-03-26T12:08:31.876Z,10.20
2019-03-26T12:11:03.556Z,10.40
2019-03-26T12:13:37.367Z,10.50
2019-03-26T12:16:08.977Z,10.30
2019-03-26T12:18:37.682Z,10.60
2019-03-26T12:21:06.130Z,10.50
2019-03-26T12:23:38.148Z,10.70
2019-03-26T12:26:09.358Z,10.60
2019-03-26T12:28:37.740Z,10.50
2019-03-26T12:31:06.194Z,10.40
2019-03-26T12:33:39.070Z,10.60
2019-03-26T12:36:09.390Z,10.70
2019-03-26T12:38:38.260Z,10.60
2019-03-26T12:41:06.705Z,10.70
2019-03-26T12:43:38.037Z,10.90
2019-03-26T12:46:06.540Z,11.00
2019-03-26T12:48:35.038Z,11.10
2019-03-26T12:51:07.776Z,11.20
2019-03-26T12:53:39.386Z,11.30
2019-03-26T12:56:08.246Z,11.50
2019-03-26T12:58:40.788Z,11.80
2019-03-26T13:01:09.220Z,12.00
2019-03-26T13:03:44.601Z,11.90
2019-03-26T13:06:16.769Z,11.50
2019-03-26T13:08:49.397Z,11.50
2019-03-26T13:11:22.959Z,11.10
2019-03-26T13:13:52.470Z,10.80
2019-03-26T13:16:40.313Z,10.60
2019-03-26T13:19:09.232Z,10.50
2019-03-26T13:21:40.718Z,10.20
2019-03-26T13:24:15.542Z,10.00
2019-03-26T13:26:49.008Z,9.90
2019-03-26T13:29:21.206Z,9.70
2019-03-26T13:31:50.041Z,9.70
2019-03-26T13:34:18.954Z,9.60
2019-03-26T13:36:48.984Z,9.70
2019-03-26T13:39:20.494Z,9.60
2019-03-26T13:41:49.290Z,9.60
2019-03-26T13:44:17.760Z,9.70
2019-03-26T13:46:48.942Z,9.60
2019-03-26T13:49:17.392Z,9.80
2019-03-26T13:51:46.633Z,9.90
2019-03-26T13:54:17.797Z,10.10
2019-03-26T13:56:50.192Z,10.20
2019-03-26T13:59:23.278Z,10.20
2019-03-26T14:01:51.771Z,10.40
2019-03-26T14:04:20.516Z,10.50
2019-03-26T14:06:52.547Z,10.60
2019-03-26T14:09:24.872Z,10.30
2019-03-26T14:11:53.757Z,10.30
2019-03-26T14:14:22.524Z,10.30
2019-03-26T14:16:52.344Z,10.10
2019-03-26T14:19:27.303Z,10.10
2019-03-26T14:21:56.812Z,10.00
2019-03-26T14:24:25.526Z,10.00
2019-03-26T14:26:55.626Z,10.10
2019-03-26T14:29:30.089Z,10.30
2019-03-26T14:32:00.854Z,10.40
2019-03-26T14:34:36.607Z,10.50
2019-03-26T14:37:08.815Z,10.40
2019-03-26T14:39:37.566Z,10.30
2019-03-26T14:42:06.344Z,10.40
2019-03-26T14:44:36.100Z,10.50
2019-03-26T14:47:06.107Z,10.30
2019-03-26T14:49:34.957Z,10.20
2019-03-26T14:52:04.187Z,10.20
2019-03-26T14:54:36.180Z,10.20
2019-03-26T14:57:05.141Z,10.20
2019-03-26T14:59:33.931Z,10.10
2019-03-26T15:02:06.188Z,10.10
2019-03-26T15:04:37.380Z,10.00
2019-03-26T15:07:05.861Z,9.80
2019-03-26T15:09:34.628Z,9.80
2019-03-26T15:12:07.322Z,9.80
2019-03-26T15:14:39.297Z,9.80
2019-03-26T15:17:10.144Z,9.90
2019-03-26T15:19:39.164Z,9.90
2019-03-26T15:22:07.632Z,9.90
2019-03-26T15:24:39.536Z,9.90
2019-03-26T15:27:08.058Z,9.90
2019-03-26T15:29:36.695Z,10.00
2019-03-26T15:32:06.806Z,10.00
2019-03-26T15:34:39.459Z,10.00
2019-03-26T15:37:08.200Z,10.00
2019-03-26T15:39:36.652Z,9.90
2019-03-26T15:42:10.635Z,10.00
2019-03-26T15:44:41.473Z,10.00
2019-03-26T15:47:09.907Z,10.00
2019-03-26T15:49:38.322Z,10.00
2019-03-26T15:52:08.535Z,10.10
2019-03-26T15:54:36.959Z,10.10
2019-03-26T15:57:05.459Z,10.00
2019-03-26T15:59:37.013Z,10.10
2019-03-26T16:02:07.172Z,10.20
2019-03-26T16:04:35.612Z,10.20
2019-03-26T16:07:04.510Z,10.30
2019-03-26T16:09:36.295Z,10.20
2019-03-26T16:12:05.139Z,10.20
2019-03-26T16:14:33.903Z,10.30
2019-03-26T16:17:06.090Z,10.40
2019-03-26T16:19:36.539Z,10.30
2019-03-26T16:22:06.581Z,10.20
2019-03-26T16:24:35.068Z,10.00
2019-03-26T16:27:03.574Z,10.00
2019-03-26T16:29:32.009Z,10.00
2019-03-26T16:32:00.459Z,9.90
2019-03-26T16:34:28.921Z,9.90
2019-03-26T16:36:59.871Z,9.80
2019-03-26T16:39:27.523Z,9.80
2019-03-26T16:41:55.981Z,9.80
2019-03-26T16:44:24.410Z,9.70
2019-03-26T16:46:52.876Z,9.70
2019-03-26T16:49:21.416Z,9.70
2019-03-26T16:51:49.909Z,9.60
2019-03-26T16:54:18.357Z,9.60
2019-03-26T16:56:46.857Z,9.60
2019-03-26T16:59:15.278Z,9.60
2019-03-26T17:01:43.685Z,9.60
2019-03-26T17:04:12.146Z,9.70
2019-03-26T17:06:40.674Z,9.70
2019-03-26T17:09:09.113Z,9.60
2019-03-26T17:11:37.722Z,9.60
2019-03-26T17:14:06.180Z,9.60
2019-03-26T17:16:34.571Z,9.60
2019-03-26T17:19:03.013Z,9.50
2019-03-26T17:21:31.447Z,9.50
2019-03-26T17:23:59.863Z,9.50
2019-03-26T17:26:28.303Z,9.50
2019-03-26T17:28:56.725Z,9.90
2019-03-26T17:31:25.177Z,9.90
2019-03-26T17:33:53.722Z,9.60
2019-03-26T17:36:22.144Z,9.50
2019-03-26T17:38:52.619Z,9.40
2019-03-26T17:41:21.079Z,9.40
2019-03-26T17:43:51.053Z,9.40
2019-03-26T17:46:19.478Z,9.30
2019-03-26T17:48:47.943Z,9.30
2019-03-26T17:51:16.362Z,9.30
2019-03-26T17:53:44.819Z,9.30
2019-03-26T17:56:13.311Z,9.30
2019-03-26T17:58:41.727Z,9.30
2019-03-26T18:01:11.854Z,9.30
2019-03-26T18:03:40.431Z,9.30
2019-03-26T18:06:08.866Z,9.20
2019-03-26T18:08:37.300Z,9.20
2019-03-26T18:11:05.735Z,9.20
2019-03-26T18:13:34.140Z,9.20
2019-03-26T18:16:02.723Z,9.10
2019-03-26T18:18:31.140Z,9.20
2019-03-26T18:21:00.348Z,9.20
2019-03-26T18:23:28.794Z,9.20
2019-03-26T18:25:57.285Z,9.20
2019-03-26T18:28:25.834Z,9.20
2019-03-26T18:30:54.258Z,9.20
2019-03-26T18:33:22.806Z,9.10
2019-03-26T18:35:51.310Z,9.20
2019-03-26T18:38:19.749Z,9.20
2019-03-26T18:40:48.243Z,9.20
2019-03-26T18:43:16.788Z,9.20
2019-03-26T18:45:45.270Z,9.10
2019-03-26T18:48:13.732Z,9.10
2019-03-26T18:50:42.276Z,9.10
2019-03-26T18:53:12.749Z,9.00
2019-03-26T18:55:41.206Z,9.00
2019-03-26T18:58:09.616Z,9.00
2019-03-26T19:00:39.076Z,9.00
2019-03-26T19:03:08.046Z,9.00
2019-03-26T19:05:36.471Z,9.10
2019-03-26T19:08:06.001Z,9.10
2019-03-26T19:10:35.429Z,9.00
2019-03-26T19:13:17.747Z,8.90
2019-03-26T19:15:34.864Z,8.90
2019-03-26T19:18:04.033Z,8.90
2019-03-26T19:20:32.508Z,8.90
2019-03-26T19:23:00.980Z,8.90
2019-03-26T19:25:29.541Z,8.90
2019-03-26T19:27:58.571Z,8.90
2019-03-26T19:30:27.236Z,8.90
2019-03-26T19:32:57.665Z,8.90
2019-03-26T19:35:25.925Z,8.80
2019-03-26T19:37:54.332Z,8.90
2019-03-26T19:40:24.610Z,9.00
2019-03-26T19:42:53.036Z,8.90
2019-03-26T19:45:21.471Z,8.90
2019-03-26T19:47:49.935Z,8.90
2019-03-26T19:50:18.625Z,8.90
2019-03-26T19:52:47.099Z,8.80
2019-03-26T19:55:18.407Z,8.90
2019-03-26T19:57:47.025Z,8.90
2019-03-26T20:00:17.583Z,8.90
2019-03-26T20:02:46.079Z,8.90
2019-03-26T20:05:15.063Z,8.80
2019-03-26T20:07:44.135Z,8.80
2019-03-26T20:10:14.607Z,8.70
2019-03-26T20:12:43.253Z,8.70
2019-03-26T20:15:12.754Z,8.70
2019-03-26T20:17:41.548Z,8.70
2019-03-26T20:20:10.811Z,8.80
2019-03-26T20:22:39.417Z,8.70
2019-03-26T20:25:09.479Z,8.70
2019-03-26T20:27:38.370Z,8.70
2019-03-26T20:30:08.097Z,8.70
2019-03-26T20:32:36.784Z,8.70
2019-03-26T20:35:09.092Z,8.70
2019-03-26T20:37:38.035Z,8.60
2019-03-26T20:40:08.901Z,8.60
2019-03-26T20:42:41.914Z,8.70
2019-03-26T20:45:14.349Z,8.70
2019-03-26T20:47:43.120Z,8.70
2019-03-26T20:50:12.072Z,8.60
2019-03-26T20:52:40.496Z,8.60
2019-03-26T20:55:11.371Z,8.60
2019-03-26T20:57:39.873Z,8.60
2019-03-26T21:00:11.211Z,8.60
2019-03-26T21:02:39.727Z,8.60
2019-03-26T21:05:11.972Z,8.60
2019-03-26T21:07:40.928Z,8.70
2019-03-26T21:10:10.146Z,8.60
2019-03-26T21:12:38.616Z,8.60
2019-03-26T21:15:10.128Z,8.60
2019-03-26T21:17:38.902Z,8.50
2019-03-26T21:20:22.056Z,8.60
2019-03-26T21:22:50.532Z,8.60
2019-03-26T21:25:19.482Z,8.70
2019-03-26T21:27:48.227Z,8.60
2019-03-26T21:30:16.770Z,8.60
2019-03-26T21:32:45.222Z,8.60
2019-03-26T21:35:13.798Z,8.50
2019-03-26T21:37:42.452Z,8.60
2019-03-26T21:40:11.940Z,8.50
2019-03-26T21:42:40.488Z,8.50
2019-03-26T21:45:10.576Z,8.50
2019-03-26T21:47:40.544Z,8.60
2019-03-26T21:50:09.734Z,8.50
2019-03-26T21:52:38.177Z,8.40
2019-03-26T21:55:08.316Z,8.40
2019-03-26T21:57:36.774Z,8.40
2019-03-26T22:00:09.367Z,8.40
2019-03-26T22:02:37.815Z,8.40
2019-03-26T22:05:07.915Z,8.40
2019-03-26T22:07:36.328Z,8.50
2019-03-26T22:10:06.728Z,8.50
2019-03-26T22:12:35.142Z,8.50
2019-03-26T22:15:06.538Z,8.50
2019-03-26T22:17:34.954Z,8.50
2019-03-26T22:20:03.812Z,8.50
2019-03-26T22:22:32.274Z,8.40
2019-03-26T22:25:00.724Z,8.40
2019-03-26T22:27:29.192Z,8.40
2019-03-26T22:29:57.702Z,8.40
2019-03-26T22:32:26.166Z,8.40
2019-03-26T22:34:54.594Z,8.40
2019-03-26T22:37:23.097Z,8.30
2019-03-26T22:39:52.423Z,8.40
2019-03-26T22:42:21.006Z,8.40
2019-03-26T22:44:49.434Z,8.40
2019-03-26T22:47:17.894Z,8.40
2019-03-26T22:49:51.528Z,8.40
2019-03-26T22:52:20.018Z,8.40
2019-03-26T22:54:48.460Z,8.40
2019-03-26T22:57:16.971Z,8.40
2019-03-26T22:59:45.424Z,8.30
2019-03-26T23:02:13.884Z,8.40
2019-03-26T23:04:42.408Z,8.40
2019-03-26T23:07:10.829Z,8.40
2019-03-26T23:09:39.345Z,8.30
2019-03-26T23:12:08.102Z,8.30
2019-03-26T23:14:44.902Z,8.30
2019-03-26T23:17:06.682Z,8.30
2019-03-26T23:19:35.167Z,8.30
2019-03-26T23:22:03.802Z,8.30
2019-03-26T23:24:32.239Z,8.30
2019-03-26T23:27:00.688Z,8.20
2019-03-26T23:29:29.114Z,8.30
2019-03-26T23:31:57.644Z,8.20
2019-03-26T23:34:26.100Z,8.20
2019-03-26T23:36:54.582Z,8.20
2019-03-26T23:39:23.103Z,8.20
2019-03-26T23:41:51.547Z,8.20
2019-03-26T23:44:25.702Z,8.20
2019-03-26T23:46:50.172Z,8.10
2019-03-26T23:49:18.602Z,8.10
2019-03-26T23:51:47.046Z,8.10
2019-03-26T23:54:15.495Z,8.10
2019-03-26T23:56:43.946Z,8.10
2019-03-26T23:59:12.411Z,8.00
